Time;durP1;ratioP1;P1;durP2;ratioP2;P2;SDS_P1;SDS_P2;PMS_P1;PMS_P2;Temp;Humidity;BMP_temperature;BMP_pressure;BME280_temperature;BME280_humidity;BME280_pressure;Samples;Min_cycle;Max_cycle;Signal;HPM_P1;HPM_P2
2021/10/28 00:12:13;;;;;;;6.64;2.94;;;2.80;99.90;;;2.50;94.21;98708.56;172466;28;1196;-75
2021/10/28 00:12:17;;;;;;;4.10;2.63;;;2.70;99.90;;;2.26;93.26;98689.00;170879;28;1275;-75
2021/10/28 00:12:26;;;;;;;3.94;2.65;;;2.70;99.90;;;2.33;92.73;98698.22;172451;28;1281;-75
2021/10/28 00:12:39;;;;;;;4.27;2.87;;;2.70;99.90;;;2.36;93.00;98706.00;172433;28;1870;-74
2021/10/28 00:13:07;;;;;;;5.24;3.29;;;2.70;99.90;;;2.30;92.99;98698.47;172521;28;1190;-75
2021/10/28 00:13:14;;;;;;;6.91;3.33;;;2.70;99.90;;;2.35;92.91;98704.31;171008;28;1338;-74
2021/10/28 00:13:22;;;;;;;6.72;3.00;;;2.70;99.90;;;2.34;93.04;98707.06;173311;28;1296;-75
2021/10/28 00:13:31;;;;;;;5.85;2.97;;;2.70;99.90;;;2.33;92.92;98703.53;173042;28;1122;-75
2021/10/28 00:13:39;;;;;;;5.70;3.06;;;2.70;99.90;;;2.29;93.07;98693.25;173717;28;1363;-73
2021/10/28 00:13:45;;;;;;;4.47;2.90;;;2.70;99.90;;;2.33;93.13;98705.38;171721;28;1381;-75
2021/10/28 00:13:54;;;;;;;4.80;3.10;;;2.70;99.90;;;2.33;93.22;98706.19;171186;28;1349;-75
2021/10/28 00:14:00;;;;;;;4.80;3.06;;;2.60;99.90;;;2.30;92.83;98703.78;172502;28;1614;-76
2021/10/28 00:14:06;;;;;;;4.78;3.28;;;2.70;99.90;;;2.33;92.80;98705.38;173146;28;1026;-74
2021/10/28 00:14:12;;;;;;;4.25;2.88;;;2.60;99.90;;;2.28;93.09;98700.34;173894;28;1492;-74
2021/10/28 00:14:19;;;;;;;3.77;2.80;;;2.60;99.90;;;2.31;92.96;98702.81;172415;28;1051;-75
2021/10/28 00:14:26;;;;;;;3.24;2.62;;;2.60;99.90;;;2.35;93.00;98712.28;171854;28;1006;-75
2021/10/28 00:14:32;;;;;;;3.83;2.60;;;2.60;99.90;;;2.30;93.01;98701.13;171817;28;1500;-74
2021/10/28 00:14:40;;;;;;;3.83;2.58;;;2.60;99.90;;;2.32;92.96;98703.66;171887;28;1339;-75
2021/10/28 00:14:53;;;;;;;4.40;2.88;;;2.60;99.90;;;2.29;92.87;98698.56;172259;28;1378;-74
2021/10/28 00:15:01;;;;;;;5.06;2.92;;;2.60;99.90;;;2.31;92.29;98702.81;172319;28;1719;-75
2021/10/28 00:15:14;;;;;;;4.28;2.75;;;2.60;99.90;;;2.32;92.86;98707.19;173755;28;1536;-75
2021/10/28 00:15:55;;;;;;;4.11;2.63;;;2.60;99.90;;;2.25;92.58;98689.94;171955;28;1230;-75
2021/10/28 00:16:08;;;;;;;4.36;2.75;;;2.60;99.90;;;2.21;92.28;98701.75;171132;28;1361;-74
2021/10/28 00:16:20;;;;;;;4.47;3.06;;;2.60;99.90;;;2.22;93.15;98703.47;172518;28;1522;-74
2021/10/28 00:16:30;;;;;;;4.55;2.85;;;2.60;99.90;;;2.25;93.32;98702.38;171343;28;1367;-75
2021/10/28 00:16:36;;;;;;;4.61;2.66;;;2.60;99.90;;;2.20;93.87;98688.56;171531;28;1139;-75
2021/10/28 00:16:44;;;;;;;5.07;2.83;;;2.60;99.90;;;2.30;93.64;98708.22;174032;28;922;-75
2021/10/28 00:16:51;;;;;;;5.43;3.02;;;2.60;99.90;;;2.24;93.80;98698.03;173058;28;1673;-75
2021/10/28 00:16:58;;;;;;;5.20;3.20;;;2.60;99.90;;;2.31;93.97;98707.28;173237;28;1055;-73
2021/10/28 00:17:10;;;;;;;5.10;3.20;;;2.60;99.90;;;2.29;93.36;98706.53;172553;28;896;-75
2021/10/28 00:17:19;;;;;;;8.01;3.26;;;2.60;99.90;;;2.20;93.80;98702.69;173136;28;1332;-75
2021/10/28 00:17:45;;;;;;;12.34;3.29;;;2.60;99.90;;;2.23;93.25;98694.50;172486;28;1039;-75
2021/10/28 00:18:13;;;;;;;5.59;3.01;;;2.60;99.90;;;2.31;93.78;98709.94;172746;28;1190;-75
2021/10/28 00:18:27;;;;;;;3.58;2.60;;;2.60;99.90;;;2.27;93.03;98697.81;173221;28;1428;-76
2021/10/28 00:18:48;;;;;;;3.69;2.55;;;2.60;99.90;;;2.21;92.97;98691.13;171756;28;1409;-76
2021/10/28 00:19:00;;;;;;;3.58;2.66;;;2.60;99.90;;;2.18;93.03;98695.81;171241;28;1240;-75
2021/10/28 00:19:06;;;;;;;4.18;2.86;;;2.60;99.90;;;2.19;93.16;98694.84;172513;28;1240;-75
2021/10/28 00:19:12;;;;;;;4.35;2.85;;;2.60;99.90;;;2.22;93.19;98708.78;171681;28;2601;-75
2021/10/28 00:19:18;;;;;;;3.80;2.47;;;2.60;99.90;;;2.19;92.98;98701.00;172318;28;1584;-75
2021/10/28 00:19:29;;;;;;;5.03;2.90;;;2.60;99.90;;;2.14;93.02;98696.00;172552;28;850;-75
2021/10/28 00:19:37;;;;;;;5.60;3.12;;;2.60;99.90;;;2.22;92.99;98714.09;172644;28;1220;-76
2021/10/28 00:19:43;;;;;;;6.17;3.30;;;2.60;99.90;;;2.17;93.42;98700.28;173097;28;1060;-75
2021/10/28 00:19:49;;;;;;;5.80;3.37;;;2.60;99.90;;;2.18;93.48;98695.81;172514;28;1323;-75
2021/10/28 00:19:55;;;;;;;4.72;3.00;;;2.60;99.90;;;2.18;93.18;98704.59;171234;28;1858;-74
2021/10/28 00:20:01;;;;;;;4.53;3.17;;;2.60;99.90;;;2.22;93.41;98703.47;171106;28;1082;-75
2021/10/28 00:20:09;;;;;;;4.37;3.23;;;2.60;99.90;;;2.16;93.18;98692.41;171330;28;1308;-75
2021/10/28 00:20:15;;;;;;;4.40;3.10;;;2.60;99.90;;;2.24;92.76;98704.19;172468;28;1541;-75
2021/10/28 00:20:21;;;;;;;4.50;3.10;;;2.50;99.90;;;2.17;93.61;98694.97;172413;28;1269;-75
2021/10/28 00:20:29;;;;;;;4.18;2.90;;;2.60;99.90;;;2.22;93.36;98705.25;172609;28;915;-75
2021/10/28 00:20:36;;;;;;;4.12;2.82;;;2.60;99.90;;;2.20;92.88;98702.69;172676;28;1609;-75
2021/10/28 00:20:42;;;;;;;4.30;2.84;;;2.50;99.90;;;2.22;93.02;98702.59;174022;28;898;-75
2021/10/28 00:20:52;;;;;;;4.70;3.10;;;2.50;99.90;;;2.19;93.19;98702.81;171622;28;1239;-76
2021/10/28 00:21:02;;;;;;;4.89;3.03;;;2.60;99.90;;;2.17;92.99;98694.09;172331;28;1585;-75
2021/10/28 00:21:09;;;;;;;4.79;2.85;;;2.50;99.90;;;2.23;92.50;98705.13;172597;28;1108;-74
2021/10/28 00:21:16;;;;;;;4.44;2.66;;;2.50;99.90;;;2.21;92.44;98708.88;171603;28;1521;-74
2021/10/28 00:21:22;;;;;;;5.57;2.70;;;2.50;99.90;;;2.16;92.69;98695.06;171938;28;961;-73
2021/10/28 00:21:33;;;;;;;5.53;2.70;;;2.50;99.90;;;2.16;92.83;98703.88;171593;28;1488;-75
2021/10/28 00:21:39;;;;;;;5.56;2.82;;;2.50;99.90;;;2.14;92.74;98692.50;173626;28;1766;-74
2021/10/28 00:21:46;;;;;;;5.68;2.83;;;2.50;99.90;;;2.19;93.04;98700.16;172608;28;1003;-75
2021/10/28 00:21:52;;;;;;;4.63;3.00;;;2.50;99.90;;;2.21;93.11;98698.25;171926;28;1481;-75
2021/10/28 00:21:58;;;;;;;4.88;3.10;;;2.60;99.90;;;2.22;93.26;98707.91;171771;28;1578;-75
2021/10/28 00:22:06;;;;;;;5.78;3.22;;;2.60;99.90;;;2.22;93.13;98707.91;172629;28;1295;-75
2021/10/28 00:22:13;;;;;;;5.33;3.10;;;2.50;99.90;;;2.23;92.84;98710.44;172577;28;859;-76
2021/10/28 00:22:22;;;;;;;5.44;3.06;;;2.50;99.90;;;2.22;92.90;98707.91;171757;28;967;-75
2021/10/28 00:22:28;;;;;;;5.11;2.89;;;2.50;99.90;;;2.23;93.02;98714.94;171908;28;1006;-75
2021/10/28 00:22:35;;;;;;;4.43;2.73;;;2.50;99.90;;;2.17;93.30;98702.94;171932;28;1011;-75
2021/10/28 00:22:41;;;;;;;4.95;2.90;;;2.50;99.90;;;2.17;93.28;98700.28;171939;28;919;-75
2021/10/28 00:22:47;;;;;;;5.13;2.90;;;2.50;99.90;;;2.18;92.96;98706.44;172132;28;1311;-74
2021/10/28 00:22:53;;;;;;;5.43;2.95;;;2.50;99.90;;;2.22;93.40;98708.78;171302;28;946;-75
2021/10/28 00:23:02;;;;;;;5.18;2.70;;;2.50;99.90;;;2.23;93.48;98705.13;171598;28;1573;-75
2021/10/28 00:23:10;;;;;;;5.90;2.68;;;2.50;99.90;;;2.21;93.58;98708.88;173169;28;1209;-74
2021/10/28 00:23:16;;;;;;;7.42;2.82;;;2.60;99.90;;;2.17;93.64;98700.28;171532;28;1421;-74
2021/10/28 00:23:23;;;;;;;7.70;2.93;;;2.50;99.90;;;2.19;92.91;98701.00;171951;28;1098;-75
2021/10/28 00:23:30;;;;;;;7.46;2.92;;;2.60;99.90;;;2.18;93.14;98701.94;171772;28;1464;-76
2021/10/28 00:23:48;;;;;;;6.86;3.04;;;2.50;99.90;;;2.24;93.08;98711.31;171055;28;1417;-75
2021/10/28 00:24:00;;;;;;;5.65;3.14;;;2.50;99.90;;;2.16;93.18;98698.56;171754;28;1210;-75
2021/10/28 00:24:11;;;;;;;5.94;3.27;;;2.60;99.90;;;2.10;93.10;98685.69;171447;28;1215;-75
2021/10/28 00:24:17;;;;;;;5.33;3.01;;;2.50;99.90;;;2.18;93.47;98701.13;171963;28;1206;-74
2021/10/28 00:24:23;;;;;;;5.15;2.88;;;2.50;99.90;;;2.21;93.39;98707.06;173170;28;1199;-75
2021/10/28 00:24:29;;;;;;;4.13;2.90;;;2.50;99.90;;;2.14;93.17;98695.16;173382;28;868;-76
2021/10/28 00:24:35;;;;;;;4.10;2.95;;;2.50;99.90;;;2.21;93.43;98709.72;171940;28;1549;-74
2021/10/28 00:24:41;;;;;;;4.30;3.15;;;2.60;99.90;;;2.17;93.44;98700.28;171202;28;1934;-75
2021/10/28 00:24:48;;;;;;;4.55;3.10;;;2.50;99.90;;;2.22;92.91;98711.44;172353;28;1181;-75
2021/10/28 00:24:54;;;;;;;4.33;2.83;;;2.50;99.90;;;2.11;93.47;98690.91;171732;28;1532;-74
2021/10/28 00:25:00;;;;;;;4.07;2.70;;;2.50;99.90;;;2.21;93.45;98709.72;171615;28;1335;-75
2021/10/28 00:25:08;;;;;;;3.83;2.63;;;2.50;99.90;;;2.18;93.08;98701.94;171315;28;1026;-74
2021/10/28 00:25:14;;;;;;;3.40;2.47;;;2.50;99.90;;;2.22;93.50;98710.56;171654;28;1537;-75
2021/10/28 00:25:20;;;;;;;3.70;2.58;;;2.50;99.90;;;2.21;93.37;98717.69;172006;28;738;-74
2021/10/28 00:25:27;;;;;;;3.20;2.58;;;2.50;99.90;;;2.19;93.32;98708.97;172920;28;1013;-75
2021/10/28 00:25:36;;;;;;;3.40;2.47;;;2.50;99.90;;;2.12;93.18;98694.44;172681;28;840;-75
2021/10/28 00:25:42;;;;;;;3.76;2.44;;;2.50;99.90;;;2.22;93.38;98707.91;171662;28;1433;-75
2021/10/28 00:25:48;;;;;;;3.60;2.40;;;2.50;99.90;;;2.14;93.38;98693.34;172011;28;924;-75
2021/10/28 00:25:54;;;;;;;4.50;2.50;;;2.50;99.90;;;2.21;92.90;98707.06;171164;28;1062;-75
2021/10/28 00:26:00;;;;;;;4.43;2.55;;;2.50;99.90;;;2.21;93.08;98707.06;171770;28;1597;-76
2021/10/28 00:26:06;;;;;;;5.37;2.77;;;2.50;99.90;;;2.19;93.16;98700.16;171116;28;1126;-74
2021/10/28 00:26:13;;;;;;;5.50;2.90;;;2.50;99.90;;;2.05;93.14;98680.69;171785;28;1272;-75
2021/10/28 00:26:19;;;;;;;5.20;2.78;;;2.50;99.90;;;2.22;93.71;98707.91;172512;28;1912;-75
2021/10/28 00:26:26;;;;;;;5.13;3.13;;;2.50;99.90;;;2.16;93.29;98703.88;172581;28;1267;-75
2021/10/28 00:26:38;;;;;;;5.60;3.42;;;2.50;99.90;;;2.19;93.45;98705.47;172295;28;1678;-73
2021/10/28 00:26:47;;;;;;;4.91;3.45;;;2.50;99.90;;;2.17;93.59;98702.06;172373;28;1980;-75
2021/10/28 00:26:53;;;;;;;5.47;3.66;;;2.50;99.90;;;2.19;93.79;98700.16;173909;28;1120;-75
2021/10/28 00:26:59;;;;;;;5.67;3.20;;;2.50;99.90;;;2.17;93.54;98694.09;173621;28;1048;-73
2021/10/28 00:27:06;;;;;;;5.60;3.07;;;2.50;99.90;;;2.19;93.29;98702.81;173173;28;1344;-74
2021/10/28 00:27:12;;;;;;;6.00;2.93;;;2.50;99.90;;;2.14;93.52;98695.16;172489;28;1551;-75
2021/10/28 00:27:18;;;;;;;6.24;2.88;;;2.50;99.90;;;2.21;93.00;98706.22;171887;28;2132;-75
2021/10/28 00:27:24;;;;;;;6.25;2.88;;;2.50;99.90;;;2.17;93.15;98692.31;172427;28;1331;-75
2021/10/28 00:27:31;;;;;;;5.93;2.87;;;2.50;99.90;;;2.14;93.23;98695.16;172607;28;1203;-75
2021/10/28 00:27:37;;;;;;;5.82;2.85;;;2.50;99.90;;;2.11;93.14;98687.41;172482;28;1337;-75
2021/10/28 00:27:43;;;;;;;4.97;2.67;;;2.50;99.90;;;2.11;92.61;98695.38;172414;28;1509;-75
2021/10/28 00:27:50;;;;;;;4.58;2.74;;;2.50;99.90;;;2.11;92.90;98685.59;172314;28;1493;-75
2021/10/28 00:27:57;;;;;;;4.37;2.80;;;2.50;99.90;;;2.22;92.82;98706.13;170574;28;1472;-73
2021/10/28 00:28:03;;;;;;;4.23;2.83;;;2.50;99.90;;;2.15;92.54;98696.84;171250;28;1682;-75
2021/10/28 00:28:10;;;;;;;4.22;2.92;;;2.50;99.90;;;2.14;92.46;98684.53;171863;28;2020;-75
2021/10/28 00:28:18;;;;;;;4.35;2.90;;;2.50;99.90;;;2.18;92.49;98695.81;173804;28;1532;-75
2021/10/28 00:28:24;;;;;;;4.15;2.67;;;2.50;99.90;;;2.19;92.57;98693.03;173095;28;1417;-75
2021/10/28 00:28:30;;;;;;;3.67;2.63;;;2.50;99.90;;;2.24;92.64;98706.84;173238;28;958;-75
2021/10/28 00:28:36;;;;;;;4.20;2.90;;;2.50;99.90;;;2.24;92.83;98711.31;170495;29;1054;-75
2021/10/28 00:28:42;;;;;;;4.13;2.88;;;2.50;99.90;;;2.22;92.29;98694.63;171897;28;1461;-75
2021/10/28 00:28:56;;;;;;;4.03;2.83;;;2.50;99.90;;;2.15;92.24;98680.91;173075;28;1173;-75
2021/10/28 00:29:08;;;;;;;4.30;2.91;;;2.50;99.90;;;2.16;92.17;98687.94;172977;28;2120;-75
2021/10/28 00:29:19;;;;;;;4.01;2.59;;;2.50;99.90;;;2.22;92.56;98700.81;172601;28;1217;-75
2021/10/28 00:29:26;;;;;;;7.30;2.97;;;2.50;99.90;;;2.19;92.48;98693.03;170927;28;1227;-73
2021/10/28 00:29:33;;;;;;;7.80;3.27;;;2.50;99.90;;;2.21;92.29;98690.28;171279;28;943;-73
2021/10/28 00:29:39;;;;;;;8.04;3.50;;;2.50;99.90;;;2.27;92.37;98701.34;171949;28;1489;-74
2021/10/28 00:29:45;;;;;;;7.72;3.28;;;2.50;99.90;;;2.28;92.17;98700.34;172687;28;927;-73
2021/10/28 00:29:52;;;;;;;5.93;3.10;;;2.50;99.90;;;2.22;92.34;98689.31;171159;28;2370;-74
2021/10/28 00:29:58;;;;;;;5.28;3.03;;;2.50;99.90;;;2.24;92.09;98695.38;172471;28;1155;-75
2021/10/28 00:30:05;;;;;;;6.70;3.08;;;2.60;99.90;;;2.18;92.32;98679.88;172458;28;1167;-74
2021/10/28 00:30:11;;;;;;;7.20;3.10;;;2.50;99.90;;;2.28;92.51;98704.84;171718;28;1256;-75
2021/10/28 00:30:19;;;;;;;7.02;3.20;;;2.50;99.90;;;2.18;92.54;98687.84;170507;29;1051;-75
2021/10/28 00:30:25;;;;;;;6.68;3.20;;;2.50;99.90;;;2.23;92.47;98688.38;171988;28;1383;-74
2021/10/28 00:30:32;;;;;;;7.06;3.30;;;2.50;99.90;;;2.22;92.18;98692.84;172011;28;1116;-74
2021/10/28 00:30:38;;;;;;;7.15;3.40;;;2.50;99.90;;;2.26;92.56;98696.97;171064;28;1590;-75
2021/10/28 00:30:44;;;;;;;6.80;3.33;;;2.50;99.90;;;2.22;92.08;98690.19;171170;28;1339;-75
2021/10/28 00:30:50;;;;;;;6.90;3.53;;;2.50;99.90;;;2.22;92.62;98690.19;171659;28;1612;-74
2021/10/28 00:30:56;;;;;;;6.40;3.35;;;2.50;99.90;;;2.23;92.43;98697.16;173152;28;1824;-73
2021/10/28 00:31:05;;;;;;;5.47;3.08;;;2.50;99.90;;;2.14;92.13;98687.19;172259;28;1447;-76
2021/10/28 00:31:12;;;;;;;5.06;2.99;;;2.60;99.90;;;2.17;92.16;98694.97;171258;28;1948;-74
2021/10/28 00:31:17;;;;;;;5.24;2.80;;;2.50;99.90;;;2.23;91.79;98705.13;171884;28;1183;-75
2021/10/28 00:31:30;;;;;;;5.30;2.80;;;2.50;99.90;;;2.18;92.20;98691.31;171159;28;1227;-75
2021/10/28 00:31:39;;;;;;;4.54;2.84;;;2.50;99.90;;;2.09;92.16;98682.19;171332;28;1232;-75
2021/10/28 00:31:47;;;;;;;4.10;2.80;;;2.50;99.90;;;2.17;92.23;98696.75;171328;28;915;-75
2021/10/28 00:31:57;;;;;;;4.27;2.71;;;2.50;99.90;;;2.11;92.34;98695.38;172639;28;1394;-75
2021/10/28 00:32:04;;;;;;;4.46;2.61;;;2.50;99.90;;;2.13;92.21;98685.47;172694;28;1040;-75
2021/10/28 00:32:10;;;;;;;4.92;2.76;;;2.50;99.90;;;2.17;92.21;98702.94;171793;28;1133;-75
2021/10/28 00:32:16;;;;;;;3.97;2.37;;;2.50;99.90;;;2.14;92.44;98696.00;173310;28;889;-75
2021/10/28 00:32:22;;;;;;;4.57;2.42;;;2.50;99.90;;;2.16;92.33;98703.03;171743;28;1397;-75
2021/10/28 00:32:28;;;;;;;4.78;2.40;;;2.50;99.90;;;2.18;92.30;98696.63;173188;28;1496;-75
2021/10/28 00:32:34;;;;;;;5.90;2.70;;;2.50;99.90;;;2.16;92.82;98692.41;173079;28;1158;-74
2021/10/28 00:32:40;;;;;;;8.63;2.65;;;2.50;99.90;;;2.10;92.26;98683.03;173087;28;1921;-75
2021/10/28 00:32:47;;;;;;;9.65;3.00;;;2.50;99.90;;;2.11;92.86;98690.06;171674;28;1220;-75
2021/10/28 00:32:53;;;;;;;8.80;3.03;;;2.50;99.90;;;2.13;92.40;98688.13;172581;28;1284;-75
2021/10/28 00:32:59;;;;;;;8.57;3.15;;;2.50;99.90;;;2.13;93.08;98693.44;173152;28;1002;-75
2021/10/28 00:33:05;;;;;;;7.88;3.08;;;2.50;99.90;;;2.20;93.17;98697.38;173240;28;1201;-75
2021/10/28 00:33:11;;;;;;;5.28;3.08;;;2.50;99.90;;;2.17;92.61;98694.97;173058;28;1304;-74
2021/10/28 00:33:17;;;;;;;4.47;3.03;;;2.50;99.90;;;2.19;92.46;98698.34;172401;28;1647;-75
2021/10/28 00:33:23;;;;;;;4.28;2.92;;;2.50;99.90;;;2.13;92.89;98681.00;171310;28;975;-75
2021/10/28 00:33:31;;;;;;;6.03;3.22;;;2.50;99.90;;;2.15;92.97;98688.88;173613;28;1140;-75
2021/10/28 00:33:38;;;;;;;7.97;3.51;;;2.50;99.90;;;2.10;92.94;98685.69;172999;28;1462;-74
2021/10/28 00:33:45;;;;;;;8.37;3.63;;;2.50;99.90;;;2.12;93.04;98686.47;173962;28;1167;-76
2021/10/28 00:33:51;;;;;;;9.03;3.90;;;2.50;99.90;;;2.11;92.89;98687.41;173231;28;978;-72
2021/10/28 00:33:59;;;;;;;8.60;3.70;;;2.50;99.90;;;2.14;92.84;98689.84;172956;28;1571;-75
2021/10/28 00:34:09;;;;;;;5.97;3.42;;;2.50;99.90;;;2.11;92.99;98692.72;170984;28;1379;-73
2021/10/28 00:34:17;;;;;;;5.33;2.97;;;2.50;99.90;;;2.13;93.29;98693.44;171178;28;1323;-76
2021/10/28 00:34:25;;;;;;;5.48;3.20;;;2.50;99.90;;;2.13;93.19;98691.63;172531;28;1158;-75
2021/10/28 00:34:31;;;;;;;5.28;3.03;;;2.50;99.90;;;2.19;93.18;98692.19;171815;28;1448;-75
2021/10/28 00:34:37;;;;;;;5.30;3.03;;;2.50;99.90;;;2.14;93.27;98698.66;171777;28;1241;-75
2021/10/28 00:34:43;;;;;;;5.50;3.30;;;2.50;99.90;;;2.18;93.28;98699.28;172001;28;943;-75
2021/10/28 00:34:48;;;;;;;5.18;3.25;;;2.50;99.90;;;2.15;93.43;98694.19;170401;29;1324;-75
2021/10/28 00:34:54;;;;;;;4.88;3.10;;;2.50;99.90;;;2.18;93.35;98696.63;171825;28;1533;-74
2021/10/28 00:35:00;;;;;;;4.22;3.15;;;2.50;99.90;;;2.14;92.80;98695.16;172258;28;1212;-73
2021/10/28 00:35:07;;;;;;;4.65;3.25;;;2.50;99.90;;;2.14;93.04;98692.50;172602;28;1429;-75
2021/10/28 00:35:14;;;;;;;5.07;3.00;;;2.50;99.90;;;2.14;93.19;98695.16;172178;28;1225;-75
2021/10/28 00:35:20;;;;;;;6.86;3.10;;;2.50;99.90;;;2.12;93.11;98694.44;171801;28;1433;-76
2021/10/28 00:35:27;;;;;;;6.33;2.90;;;2.50;99.90;;;2.12;93.26;98689.13;173140;28;1123;-74
2021/10/28 00:35:35;;;;;;;6.53;2.95;;;2.50;99.90;;;2.11;93.09;98690.91;173978;28;1052;-75
2021/10/28 00:35:41;;;;;;;5.57;2.83;;;2.50;99.90;;;2.14;92.69;98692.50;172852;28;1314;-75
2021/10/28 00:35:46;;;;;;;4.40;2.92;;;2.50;99.90;;;2.12;93.12;98691.75;172448;28;1582;-74
2021/10/28 00:35:52;;;;;;;4.05;2.88;;;2.50;99.90;;;2.06;93.07;98681.56;172203;28;1343;-75
2021/10/28 00:36:05;;;;;;;4.85;3.17;;;2.50;99.90;;;2.15;92.37;98696.84;172631;28;915;-75
2021/10/28 00:36:11;;;;;;;5.51;3.44;;;2.50;99.90;;;2.10;92.84;98691.88;173015;28;2442;-75
2021/10/28 00:36:17;;;;;;;5.20;3.47;;;2.50;99.90;;;2.10;92.73;98693.66;171777;28;1793;-72
2021/10/28 00:36:25;;;;;;;5.10;3.42;;;2.50;99.90;;;2.07;92.53;98683.25;172308;28;1061;-75
2021/10/28 00:36:31;;;;;;;5.45;3.13;;;2.40;99.90;;;2.14;92.55;98701.31;173496;28;1334;-75
2021/10/28 00:36:39;;;;;;;6.00;3.08;;;2.40;99.90;;;2.11;92.33;98698.03;172588;28;1166;-75
2021/10/28 00:36:47;;;;;;;6.58;3.08;;;2.40;99.90;;;2.06;92.80;98685.06;172686;28;1147;-75
2021/10/28 00:36:55;;;;;;;6.93;3.30;;;2.40;99.90;;;2.14;92.32;98703.13;171795;28;1370;-74
2021/10/28 00:37:01;;;;;;;6.50;3.42;;;2.40;99.90;;;2.14;91.97;98703.13;172157;28;1467;-75
2021/10/28 00:37:07;;;;;;;5.82;3.33;;;2.40;99.90;;;2.09;92.20;98695.47;172688;28;887;-75
2021/10/28 00:37:13;;;;;;;5.45;3.35;;;2.40;99.90;;;2.08;91.90;98690.25;172815;28;1882;-75
2021/10/28 00:37:19;;;;;;;5.77;3.27;;;2.40;99.90;;;2.14;92.08;98697.81;171946;28;1341;-75
2021/10/28 00:37:25;;;;;;;5.88;3.03;;;2.40;99.90;;;2.10;91.77;98698.97;172522;28;941;-75
2021/10/28 00:37:31;;;;;;;5.43;2.88;;;2.40;99.90;;;2.11;92.19;98690.06;173212;28;1300;-75
2021/10/28 00:37:37;;;;;;;5.70;3.00;;;2.40;99.90;;;2.15;91.80;98696.84;171791;28;1515;-74
2021/10/28 00:37:43;;;;;;;5.50;2.83;;;2.40;99.90;;;2.09;92.09;98686.66;171161;28;1491;-75
2021/10/28 00:37:50;;;;;;;4.65;2.63;;;2.40;99.90;;;2.11;91.86;98692.72;173157;28;1355;-74
2021/10/28 00:37:57;;;;;;;3.83;2.70;;;2.40;99.90;;;2.13;92.05;98685.47;173082;28;1434;-73
2021/10/28 00:38:03;;;;;;;3.56;2.58;;;2.40;99.90;;;2.12;91.79;98689.13;171908;28;1465;-75
2021/10/28 00:38:09;;;;;;;3.50;2.63;;;2.40;99.90;;;2.14;91.58;98697.81;171787;28;979;-75
2021/10/28 00:38:15;;;;;;;4.13;2.58;;;2.40;99.90;;;2.08;91.61;98687.59;171262;28;1496;-74
2021/10/28 00:38:21;;;;;;;5.55;2.78;;;2.40;99.90;;;2.07;91.73;98689.41;170701;28;1399;-75
2021/10/28 00:38:28;;;;;;;6.10;3.08;;;2.40;99.90;;;2.11;92.26;98687.41;171845;28;1397;-75
2021/10/28 00:38:34;;;;;;;6.53;3.00;;;2.40;99.90;;;2.08;92.13;98691.09;172060;28;1246;-75
2021/10/28 00:38:42;;;;;;;6.38;2.90;;;2.40;99.90;;;2.10;92.44;98688.34;173326;28;891;-75
2021/10/28 00:38:48;;;;;;;5.33;3.00;;;2.40;99.90;;;2.14;91.96;98695.16;172010;28;1547;-75
2021/10/28 00:38:55;;;;;;;5.20;3.08;;;2.40;99.90;;;2.12;91.90;98691.75;171113;28;1403;-75
2021/10/28 00:39:03;;;;;;;5.57;3.03;;;2.40;99.90;;;2.10;92.22;98685.69;172176;28;1767;-75
2021/10/28 00:39:09;;;;;;;6.10;3.31;;;2.40;99.90;;;2.10;92.01;98693.66;171664;28;2036;-75
2021/10/28 00:39:17;;;;;;;6.43;3.40;;;2.40;99.90;;;2.07;91.89;98683.25;172500;28;1725;-75
2021/10/28 00:39:23;;;;;;;6.40;3.34;;;2.40;99.90;;;2.05;92.31;98680.69;171710;28;1689;-75
2021/10/28 00:39:29;;;;;;;6.57;3.10;;;2.40;99.90;;;2.04;91.67;98684.31;172521;28;1213;-75
2021/10/28 00:39:35;;;;;;;5.85;3.05;;;2.40;99.90;;;2.04;92.14;98678.16;173242;28;1284;-75
2021/10/28 00:39:41;;;;;;;4.97;2.73;;;2.40;99.90;;;2.09;92.05;98692.81;173033;28;1093;-75
2021/10/28 00:39:47;;;;;;;5.00;2.63;;;2.40;99.90;;;2.12;91.97;98692.59;171888;28;1276;-75
2021/10/28 00:39:53;;;;;;;4.97;2.55;;;2.40;99.90;;;2.13;91.86;98701.41;170908;28;2317;-75
2021/10/28 00:39:59;;;;;;;3.58;2.40;;;2.40;99.90;;;1.96;91.99;98669.88;170689;28;1629;-75
2021/10/28 00:40:09;;;;;;;4.15;2.55;;;2.40;99.90;;;2.07;91.82;98693.88;171733;28;1121;-75
2021/10/28 00:40:15;;;;;;;4.24;2.74;;;2.40;99.90;;;2.13;91.90;98698.75;171237;28;1145;-75
2021/10/28 00:40:22;;;;;;;5.03;3.03;;;2.40;99.90;;;2.09;91.52;98686.66;172984;28;1304;-75
2021/10/28 00:40:28;;;;;;;5.45;3.03;;;2.40;99.90;;;2.12;91.85;98699.75;171706;28;1552;-75
2021/10/28 00:40:34;;;;;;;5.67;3.10;;;2.40;99.90;;;2.12;91.78;98697.09;172650;28;1213;-75
2021/10/28 00:40:40;;;;;;;7.05;3.17;;;2.40;99.90;;;2.11;91.48;98701.53;172512;28;1233;-75
2021/10/28 00:40:46;;;;;;;6.82;2.96;;;2.40;99.90;;;2.06;91.47;98687.72;172626;28;1276;-75
2021/10/28 00:40:53;;;;;;;5.75;2.72;;;2.40;99.90;;;2.10;91.75;98697.19;173086;28;1814;-75
2021/10/28 00:41:03;;;;;;;5.38;2.78;;;2.40;99.90;;;2.06;91.98;98694.84;173745;28;1300;-74
2021/10/28 00:41:09;;;;;;;4.60;2.75;;;2.40;99.90;;;2.10;91.48;98693.66;171949;28;1297;-75
2021/10/28 00:41:21;;;;;;;5.12;2.76;;;2.40;99.90;;;2.07;92.07;98694.72;171734;28;1404;-74
2021/10/28 00:41:27;;;;;;;5.69;2.92;;;2.40;99.90;;;2.08;91.95;98692.91;171308;28;1210;-75
2021/10/28 00:41:34;;;;;;;6.13;2.87;;;2.40;99.90;;;2.07;92.11;98691.22;169900;29;1422;-74
2021/10/28 00:41:42;;;;;;;5.74;2.94;;;2.40;99.90;;;2.12;91.94;98697.09;171836;28;1442;-73
2021/10/28 00:41:49;;;;;;;5.30;3.03;;;2.40;99.90;;;2.07;92.01;98693.88;171936;28;915;-75
2021/10/28 00:41:56;;;;;;;4.98;2.90;;;2.40;99.90;;;2.03;92.16;98687.06;172494;28;1392;-75
2021/10/28 00:42:03;;;;;;;5.05;2.80;;;2.40;99.90;;;2.06;92.35;98690.38;172513;28;1796;-75
2021/10/28 00:42:09;;;;;;;4.74;2.80;;;2.40;99.90;;;2.11;92.33;98695.38;172253;28;1226;-75
2021/10/28 00:42:15;;;;;;;5.32;2.88;;;2.40;99.90;;;2.09;92.17;98697.28;173177;28;1480;-75
2021/10/28 00:42:22;;;;;;;5.34;2.70;;;2.40;99.90;;;2.11;91.97;98692.72;171713;28;1355;-75
2021/10/28 00:42:28;;;;;;;5.38;3.08;;;2.40;99.90;;;2.03;92.57;98687.91;173159;28;1335;-75
2021/10/28 00:42:36;;;;;;;5.57;3.10;;;2.40;99.90;;;2.12;91.85;98697.09;171782;28;1073;-75
2021/10/28 00:42:42;;;;;;;5.47;2.83;;;2.40;99.90;;;2.11;92.04;98698.03;171946;28;1255;-75
2021/10/28 00:42:48;;;;;;;5.73;2.90;;;2.40;99.90;;;2.05;92.34;98686.03;173004;28;1414;-74
2021/10/28 00:42:56;;;;;;;5.95;2.95;;;2.40;99.90;;;2.11;92.28;98698.88;172577;28;998;-75
2021/10/28 00:43:02;;;;;;;5.70;2.70;;;2.40;99.90;;;2.11;92.43;98700.69;172365;28;1198;-75
2021/10/28 00:43:08;;;;;;;5.46;2.78;;;2.40;99.90;;;2.11;92.14;98700.69;173299;28;919;-75
2021/10/28 00:43:14;;;;;;;4.38;2.55;;;2.40;99.90;;;1.93;92.39;98668.25;171428;28;1321;-75
2021/10/28 00:43:21;;;;;;;4.53;2.63;;;2.40;99.90;;;2.02;92.31;98680.06;171947;28;820;-76
2021/10/28 00:43:29;;;;;;;4.64;2.66;;;2.40;99.90;;;2.04;92.05;98686.09;171688;28;1518;-75
2021/10/28 00:43:48;;;;;;;5.50;3.07;;;2.40;99.90;;;2.06;92.28;98698.34;171841;28;1677;-75
2021/10/28 00:43:58;;;;;;;5.11;2.80;;;2.40;99.90;;;2.10;91.84;98699.84;174227;28;1312;-75
2021/10/28 00:44:07;;;;;;;3.91;2.19;;;2.40;99.90;;;2.07;91.71;98699.19;173193;28;1429;-74
2021/10/28 00:44:14;;;;;;;4.37;2.33;;;2.40;99.90;;;2.03;91.92;98687.91;171297;28;907;-75
2021/10/28 00:44:20;;;;;;;4.80;2.67;;;2.40;99.90;;;2.04;91.55;98688.78;171218;28;1478;-75
2021/10/28 00:44:26;;;;;;;4.64;2.76;;;2.40;99.90;;;2.10;92.00;98697.19;172667;28;895;-75
2021/10/28 00:44:33;;;;;;;4.72;2.78;;;2.40;99.90;;;2.03;91.83;98682.59;172774;28;1338;-75
2021/10/28 00:44:39;;;;;;;4.62;2.88;;;2.40;99.90;;;2.08;91.50;98693.75;171123;28;1375;-75
2021/10/28 00:44:48;;;;;;;4.57;3.10;;;2.40;99.90;;;2.09;91.78;98690.16;172389;28;1355;-75
2021/10/28 00:44:54;;;;;;;4.20;3.03;;;2.40;99.90;;;2.13;91.97;98701.41;172481;28;1055;-75
2021/10/28 00:45:01;;;;;;;4.23;3.00;;;2.40;99.90;;;2.12;91.30;98697.09;172615;28;1377;-75
2021/10/28 00:45:08;;;;;;;4.30;3.00;;;2.40;99.90;;;2.07;91.43;98688.56;171844;28;1439;-75
2021/10/28 00:45:14;;;;;;;3.93;2.63;;;2.40;99.90;;;2.13;91.55;98696.09;172015;28;1241;-75
2021/10/28 00:45:26;;;;;;;4.13;2.73;;;2.40;99.90;;;2.13;91.38;98698.75;171224;28;1270;-75
2021/10/28 00:45:32;;;;;;;3.99;2.89;;;2.40;99.90;;;2.11;91.41;98700.69;171851;28;1613;-75
2021/10/28 00:45:40;;;;;;;4.23;3.00;;;2.40;99.90;;;2.10;91.47;98693.66;172165;28;1618;-73
2021/10/28 00:45:52;;;;;;;4.23;3.00;;;2.40;99.90;;;2.12;91.24;98699.75;172460;28;1590;-75
2021/10/28 00:46:00;;;;;;;4.45;2.70;;;2.40;99.90;;;2.07;91.46;98688.56;171887;28;1351;-75